Latest Weather Observations for McCluer Island

IDD60801

Issued at 7:31 pm CST Friday 29 July 2016 (issued every 30 minutes, with the page automatically refreshed every 10 minutes)

About weather observations | Map of weather stations | Latest weather observations for NT | Other Formats
Station Details ID: 014274 Name: MCCLUER ISLAND Lat: -11.05 Lon: 132.98 Height: 1.4 m
Data from the previous 72 hours. | See also: Recent months at McCluer Island
Date/Time
CST
Temp
°C
App
Temp
°C
Dew
Point
°C
Rel
Hum
%
Delta-T
°C
Wind Press
QNH
hPa
Press
MSL
hPa
Rain since
9am
mm
Dir  Spd
km/h
Gust
km/h
Spd
kts
Gust
kts
29/07:30pm 26.1 26.0 20.7 72 3.5 E 22 26 12 14 1010.9 - 0.0
29/06:30pm 26.4 25.9 20.0 68 4.2 E 22 26 12 14 1010.1 - 0.0
29/06:00pm 26.7 26.7 20.1 67 4.3 E 20 22 11 12 1010.0 1010.0 0.0
29/05:30pm 27.0 25.7 19.9 65 4.6 E 26 30 14 16 1010.0 - 0.0
29/05:00pm 27.5 26.1 19.6 62 5.1 E 26 32 14 17 1010.1 - 0.0
29/04:30pm 27.4 24.8 18.7 59 5.6 ESE 30 35 16 19 1010.0 - 0.0
29/04:00pm 27.6 25.0 19.4 61 5.3 ESE 32 39 17 21 1010.2 - 0.0
29/03:30pm 27.3 23.8 17.8 56 6.0 ESE 33 39 18 21 1010.4 - 0.0
29/03:00pm 27.4 23.8 17.6 55 6.2 ESE 33 41 18 22 1010.5 1010.5 0.0
29/02:30pm 27.3 24.1 18.6 59 5.6 ESE 33 39 18 21 1010.8 - 0.0
29/02:00pm 27.1 23.3 18.1 58 5.7 ESE 35 39 19 21 1011.2 - 0.0
29/01:30pm 27.5 23.7 18.2 57 5.9 ESE 35 41 19 22 1011.6 - 0.0
29/01:00pm 26.7 22.0 16.9 55 6.1 ESE 37 46 20 25 1011.9 - 0.0
29/12:30pm 28.4 22.6 15.0 44 8.1 ESE 39 50 21 27 1012.2 - 0.0
29/12:00pm 29.1 22.8 14.5 41 8.8 ESE 41 50 22 27 1012.5 1012.5 0.0
29/11:30am 27.1 20.7 15.5 49 7.1 ESE 43 54 23 29 1012.8 - 0.0
29/11:00am 28.3 23.4 15.2 44 8.0 SE 35 46 19 25 1013.1 - 0.0
29/10:30am 27.5 23.0 16.5 51 6.8 SE 35 46 19 25 1013.2 - 0.0
29/10:00am 27.4 22.0 15.1 47 7.5 SE 37 48 20 26 1013.4 - 0.0
29/09:30am 27.3 22.3 16.0 50 6.9 SE 37 50 20 27 1013.5 - 0.0
29/09:00am 26.6 22.3 15.9 51 6.5 SE 33 46 18 25 1013.6 1013.6 0.0
29/08:39am 26.9 22.5 15.6 50 6.9 SE 33 52 18 28 1013.3 - 0.0
29/08:30am 26.0 20.5 15.7 53 6.3 SE 39 52 21 28 1013.3 - 0.0
29/08:15am 25.9 21.3 15.0 51 6.6 SE 33 52 18 28 1013.0 - 0.0
29/08:00am 25.7 21.1 16.0 55 5.9 SE 35 48 19 26 1013.0 - 0.0
29/07:30am 24.9 20.9 16.1 58 5.4 SE 32 46 17 25 1012.8 - 0.0
29/07:00am 24.6 20.6 16.6 61 4.9 SE 33 44 18 24 1012.5 - 0.0
29/06:30am 24.4 20.9 16.4 61 4.9 SE 30 41 16 22 1012.1 - 0.0
29/06:00am 24.5 20.6 16.5 61 4.9 SE 32 44 17 24 1012.0 1012.0 0.0
29/05:30am 24.6 21.6 16.8 62 4.8 SE 28 44 15 24 1012.0 - 0.0
29/05:00am 24.6 21.2 16.8 62 4.8 SE 30 39 16 21 1012.0 - 0.0
29/04:30am 24.9 22.7 17.9 65 4.4 SE 26 35 14 19 1012.0 - 0.0
29/04:00am 25.1 22.3 17.3 62 4.9 SE 28 39 15 21 1012.1 - 0.0
29/03:30am 25.1 22.9 17.8 64 4.6 SE 26 35 14 19 1012.1 - 0.0
29/03:00am 25.4 23.0 18.3 65 4.5 SE 28 37 15 20 1012.3 1012.3 0.0
29/02:30am 25.5 23.9 18.4 65 4.5 SE 24 32 13 17 1012.5 - 0.0
29/02:00am 25.7 23.4 18.4 64 4.6 SE 28 41 15 22 1012.9 - 0.0
29/01:30am 25.9 22.9 18.6 64 4.6 SE 32 43 17 23 1013.2 - 0.0
29/01:00am 26.0 23.2 18.2 62 4.9 SE 30 41 16 22 1013.2 - 0.0
29/12:30am 26.1 23.3 19.5 67 4.3 ESE 33 43 18 23 1013.6 - 0.0
29/12:00am 26.0 21.6 18.4 63 4.8 ESE 39 48 21 26 1013.8 1013.8 0.0
 
Date/Time
CST
Temp
°C
App
Temp
°C
Dew
Point
°C
Rel
Hum
%
Delta-T
°C
Wind Press
QNH
hPa
Press
MSL
hPa
Rain since
9am
mm
Dir  Spd
km/h
Gust
km/h
Spd
kts
Gust
kts
28/11:30pm 26.1 22.0 20.7 72 3.5 ESE 43 54 23 29 1013.8 - 0.0
28/11:00pm 26.1 22.0 20.7 72 3.5 ESE 43 48 23 26 1013.7 - 0.0
28/10:30pm 26.6 25.3 22.4 78 2.8 ESE 33 43 18 23 1013.6 - 0.0
28/10:00pm 26.7 25.5 22.3 77 3.0 ESE 32 37 17 20 1013.6 - 0.0
28/09:30pm 26.4 25.4 22.0 77 2.9 E 30 35 16 19 1013.5 - 0.0
28/09:00pm 26.5 25.7 21.7 75 3.2 E 28 33 15 18 1013.2 1013.2 0.0
28/08:30pm 26.4 25.4 21.2 73 3.4 E 28 32 15 17 1012.8 - 0.0
28/08:00pm 26.5 24.5 20.8 71 3.8 E 32 35 17 19 1012.4 - 0.0
28/07:30pm 26.2 25.5 21.0 73 3.4 E 26 30 14 16 1011.9 - 0.0
28/07:00pm 26.3 25.0 20.6 71 3.7 E 28 32 15 17 1011.6 - 0.0
28/06:30pm 26.1 25.1 20.4 71 3.7 E 26 32 14 17 1011.1 - 0.0
28/06:00pm 26.1 25.1 19.7 68 4.1 ESE 24 28 13 15 1011.0 1011.0 0.0
28/05:30pm 26.2 25.2 19.6 67 4.3 E 24 28 13 15 1010.9 - 0.0
28/05:00pm 26.7 24.8 19.3 64 4.8 E 28 32 15 17 1010.7 - 0.0
28/04:30pm 26.8 24.8 19.2 63 4.9 E 28 33 15 18 1010.6 - 0.0
28/04:00pm 26.5 23.9 18.6 62 5.0 E 30 32 16 17 1010.6 - 0.0
28/03:30pm 26.6 23.6 18.7 62 5.0 E 32 35 17 19 1010.9 - 0.0
28/03:00pm 26.4 23.1 18.3 61 5.1 E 33 39 18 21 1011.2 1011.2 0.0
28/02:30pm 26.5 22.9 17.6 58 5.6 ESE 33 39 18 21 1011.6 - 0.0
28/02:00pm 26.3 22.7 17.6 58 5.5 ESE 33 37 18 20 1011.9 - 0.0
28/01:30pm 26.0 22.4 17.1 58 5.5 ESE 32 39 17 21 1012.5 - 0.0
28/01:00pm 25.8 22.2 17.7 61 5.1 ESE 33 39 18 21 1012.9 - 0.0
28/12:30pm 26.2 21.7 17.3 58 5.6 ESE 37 44 20 24 1013.2 - 0.0
28/12:00pm 27.0 22.0 16.0 51 6.8 ESE 37 46 20 25 1013.5 1013.5 0.0
28/11:30am 25.5 20.1 16.1 56 5.7 ESE 39 50 21 27 1014.0 - 0.0
28/11:00am 26.2 20.6 15.6 52 6.4 SE 39 54 21 29 1014.1 - 0.0
28/10:30am 26.2 19.9 15.6 52 6.4 ESE 43 57 23 31 1014.5 - 0.0
28/10:08am 26.0 19.4 14.8 50 6.7 ESE 43 61 23 33 1014.6 - 0.0
28/10:00am 25.6 18.5 14.1 49 6.8 SE 44 57 24 31 1014.6 - 0.0
28/09:30am 25.8 19.3 14.0 48 7.0 ESE 41 59 22 32 1014.8 - 0.0
28/09:03am 25.4 19.6 13.9 49 6.8 ESE 37 56 20 30 1014.8 - 0.0
28/09:00am 25.7 20.4 15.4 53 6.2 ESE 37 52 20 28 1014.9 1014.9 0.0
28/08:35am 25.3 19.2 14.1 50 6.6 SE 39 57 21 31 1014.8 - 0.0
28/08:30am 25.3 18.9 14.4 50 6.5 ESE 41 57 22 31 1014.7 - 0.0
28/08:00am 24.7 19.6 13.6 50 6.5 SE 33 46 18 25 1014.5 - 0.0
28/07:30am 24.0 18.7 12.6 49 6.5 SE 32 44 17 24 1014.1 - 0.0
28/07:00am 23.7 19.2 13.8 53 5.8 SE 30 44 16 24 1013.9 - 0.0
28/06:30am 23.9 19.3 14.6 56 5.5 SE 32 43 17 23 1013.6 - 0.0
28/06:02am 24.4 19.6 13.9 52 6.2 SE 32 50 17 27 1013.4 - 0.0
28/06:00am 24.4 19.7 14.8 55 5.7 SE 33 50 18 27 1013.4 1013.4 0.0
28/05:44am 25.1 18.4 12.3 45 7.3 SE 39 59 21 32 1013.1 - 0.0
28/05:30am 25.1 18.7 13.3 48 6.9 SE 39 54 21 29 1013.0 - 0.0
28/05:05am 24.6 19.3 13.2 49 6.6 SE 33 52 18 28 1012.9 - 0.0
28/05:00am 24.7 19.2 13.6 50 6.5 ESE 35 52 19 28 1012.9 - 0.0
28/04:56am 24.7 19.4 13.0 48 6.8 SE 33 52 18 28 1012.9 - 0.0
28/04:30am 24.3 18.1 13.8 52 6.2 ESE 39 50 21 27 1013.1 - 0.0
28/04:00am 24.4 19.9 13.9 52 6.2 SE 30 43 16 23 1013.2 - 0.0
28/03:30am 24.2 20.8 15.7 59 5.1 SE 28 37 15 20 1013.4 - 0.0
28/03:00am 24.6 22.6 17.3 64 4.5 SE 24 35 13 19 1013.2 - 0.0
28/02:30am 25.0 21.5 16.4 59 5.3 SE 30 39 16 21 1013.4 - 0.0
28/02:00am 25.2 22.1 17.4 62 4.9 SE 30 41 16 22 1013.6 - 0.0
28/01:30am 25.5 21.5 17.7 62 4.9 ESE 35 48 19 26 1013.8 - 0.0
28/01:00am 25.5 20.9 19.6 70 3.8 ESE 43 50 23 27 1013.9 - 0.0
28/12:30am 25.7 20.3 19.1 67 4.2 ESE 46 56 25 30 1013.9 - 0.0
28/12:00am 26.1 20.9 19.7 68 4.1 ESE 46 56 25 30 1013.7 1013.7 0.0
 
Date/Time
CST
Temp
°C
App
Temp
°C
Dew
Point
°C
Rel
Hum
%
Delta-T
°C
Wind Press
QNH
hPa
Press
MSL
hPa
Rain since
9am
mm
Dir  Spd
km/h
Gust
km/h
Spd
kts
Gust
kts
27/11:30pm 26.4 21.5 20.3 69 4.0 ESE 46 56 25 30 1013.6 - 0.0
27/11:00pm 26.5 22.0 21.0 72 3.6 E 46 57 25 31 1013.5 - 0.0
27/10:30pm 26.6 22.3 20.7 70 3.9 E 44 54 24 29 1013.5 - 0.0
27/10:00pm 26.8 23.1 21.5 72 3.5 E 43 50 23 27 1013.5 - 0.0
27/09:30pm 26.8 23.5 21.5 72 3.5 E 41 48 22 26 1013.2 - 0.0
27/09:00pm 26.7 23.6 21.2 72 3.6 E 39 48 21 26 1013.2 1013.2 0.0
27/08:30pm 26.8 23.9 21.5 72 3.5 E 39 44 21 24 1013.0 - 0.0
27/08:00pm 26.5 23.8 21.3 73 3.4 E 37 46 20 25 1012.7 - 0.0
27/07:30pm 26.9 24.4 21.6 72 3.5 E 37 43 20 23 1012.4 - 0.0
27/07:00pm 26.8 24.6 21.5 72 3.5 E 35 43 19 23 1012.2 - 0.0
27/06:30pm 26.7 24.7 21.2 72 3.6 E 33 41 18 22 1011.8 - 0.0
27/06:00pm 27.0 24.9 21.7 73 3.5 E 35 43 19 23 1011.5 1011.5 0.0
27/05:30pm 26.6 24.5 20.9 71 3.8 E 33 37 18 20 1011.5 - 0.0
27/05:00pm 26.8 24.5 21.3 72 3.7 E 35 41 19 22 1011.3 - 0.0
27/04:30pm 27.2 24.7 20.8 68 4.2 E 35 43 19 23 1011.3 - 0.0
27/04:00pm 27.6 25.1 21.6 70 4.0 E 37 41 20 22 1011.4 - 0.0
27/03:30pm 27.2 23.9 20.8 68 4.2 E 39 44 21 24 1011.5 - 0.0
27/03:00pm 27.0 23.1 20.3 66 4.4 ESE 41 46 22 25 1011.5 1011.5 0.0
27/02:30pm 26.9 22.8 20.0 66 4.5 ESE 41 48 22 26 1011.8 - 0.0
27/02:00pm 26.9 21.8 19.0 62 5.1 ESE 44 52 24 28 1012.0 - 0.0
27/01:30pm 27.6 22.9 19.9 63 5.0 ESE 44 54 24 29 1012.3 - 0.0
27/01:00pm 27.9 22.5 18.3 56 6.1 ESE 44 52 24 28 1012.7 - 0.0
27/12:30pm 27.7 22.9 18.4 57 5.9 ESE 41 50 22 27 1013.0 - 0.0
27/12:00pm 27.9 24.8 19.7 61 5.3 ESE 35 48 19 26 1013.4 1013.4 0.0
27/11:30am 27.5 23.7 19.0 59 5.5 ESE 37 46 20 25 1013.7 - 0.0
27/11:00am 27.6 23.6 19.4 61 5.3 ESE 39 48 21 26 1013.9 - 0.0
27/10:30am 27.5 24.2 19.3 61 5.3 SE 35 44 19 24 1013.9 - 0.0
27/10:00am 27.1 23.7 18.9 61 5.3 ESE 35 44 19 24 1014.1 - 0.0
27/09:30am 26.5 23.0 19.6 66 4.5 ESE 37 43 20 23 1014.1 - 0.0
27/09:00am 26.7 24.4 19.3 64 4.8 ESE 30 37 16 20 1014.1 1014.1 0.0
27/08:30am 26.4 23.6 18.3 61 5.1 SE 30 37 16 20 1013.9 - 0.0
27/08:00am 25.8 24.4 18.0 62 4.9 SE 22 33 12 18 1013.6 - 0.0
27/07:30am 24.7 24.0 18.6 69 3.9 SE 20 28 11 15 1013.2 - 0.0
27/07:00am 24.5 23.9 18.9 71 3.6 SE 20 30 11 16 1013.0 - 0.0
27/06:30am 25.1 22.4 18.5 67 4.2 ESE 30 37 16 20 1012.7 - 0.0
27/06:00am 25.0 23.0 18.4 66 4.2 ESE 26 35 14 19 1012.4 1012.4 0.0
27/05:30am 25.0 23.0 19.1 70 3.8 ESE 28 35 15 19 1012.4 - 0.0
27/05:00am 25.1 23.8 19.9 73 3.4 ESE 26 35 14 19 1012.3 - 0.0
27/04:30am 25.1 22.5 19.5 71 3.6 ESE 32 43 17 23 1012.1 - 0.0
27/04:00am 25.1 22.0 19.7 72 3.5 ESE 35 43 19 23 1012.0 - 0.0
27/03:30am 25.7 22.2 19.6 69 3.9 ESE 37 46 20 25 1012.1 - 0.0
27/03:00am 25.7 22.0 19.1 67 4.2 ESE 37 46 20 25 1012.4 1012.4 0.0
27/02:30am 25.7 21.5 18.1 63 4.8 ESE 37 48 20 26 1012.5 - 0.0
27/02:00am 25.9 22.3 19.3 67 4.2 ESE 37 46 20 25 1012.5 - 0.0
27/01:30am 26.3 21.8 20.2 69 4.0 ESE 44 52 24 28 1012.4 - 0.0
27/01:00am 26.8 24.1 22.6 78 2.8 E 41 48 22 26 1012.7 - 0.0
27/12:30am 26.7 25.2 22.8 79 2.6 E 35 44 19 24 1012.8 - 0.0
27/12:00am 26.8 25.7 22.8 79 2.7 E 33 39 18 21 1012.5 1012.5 0.0
 
Date/Time
CST
Temp
°C
App
Temp
°C
Dew
Point
°C
Rel
Hum
%
Delta-T
°C
Wind Press
QNH
hPa
Press
MSL
hPa
Rain since
9am
mm
Dir  Spd
km/h
Gust
km/h
Spd
kts
Gust
kts
26/11:30pm 26.8 26.0 23.1 80 2.5 E 32 35 17 19 1012.5 - 0.0
26/11:00pm 26.9 25.9 22.7 78 2.8 E 32 37 17 20 1012.6 - 0.0
26/10:30pm 26.8 26.2 22.6 78 2.8 E 30 35 16 19 1012.5 - 0.0
26/10:00pm 26.9 27.2 22.9 79 2.7 E 26 32 14 17 1012.4 - 0.0
26/09:30pm 26.7 26.2 22.1 76 3.1 E 28 35 15 19 1012.2 - 0.0
26/09:00pm 26.5 26.0 22.1 77 3.0 ENE 28 32 15 17 1012.0 1012.0 0.0
26/08:30pm 26.9 26.7 22.7 78 2.8 ENE 28 32 15 17 1011.8 - 0.0
26/08:00pm 26.5 26.6 21.9 76 3.1 ENE 24 30 13 16 1011.6 - 0.0

Other Formats:

Comma delimited format used in spreadsheet applications
http://www.bom.gov.au/fwo/IDD60801/IDD60801.94135.axf

JavaScript Object Notation format (JSON) in row-major order
http://www.bom.gov.au/fwo/IDD60801/IDD60801.94135.json